Time;durP1;ratioP1;P1;durP2;ratioP2;P2;SDS_P1;SDS_P2;PMS_P1;PMS_P2;Temp;Humidity;BMP_temperature;BMP_pressure;BME280_temperature;BME280_humidity;BME280_pressure;Samples;Min_cycle;Max_cycle;Signal;HPM_P1;HPM_P2
2022/09/07 00:01:45;;;;;;;5.15;3.72;;;;;;;17.57;51.51;94330.50;4972656;28;20018;-78
2022/09/07 00:04:11;;;;;;;5.65;4.15;;;;;;;17.73;51.55;94349.38;4968902;28;20046;-78
2022/09/07 00:06:37;;;;;;;5.40;4.28;;;;;;;17.49;51.71;94317.22;4954177;28;20022;-78
2022/09/07 00:09:03;;;;;;;4.97;3.95;;;;;;;17.47;51.66;94319.47;4969563;28;20030;-79
2022/09/07 00:11:28;;;;;;;5.50;3.60;;;;;;;17.58;51.61;94332.09;4968999;28;20018;-79
2022/09/07 00:13:54;;;;;;;4.43;3.50;;;;;;;17.76;51.88;94356.75;4970175;28;20033;-77
2022/09/07 00:16:23;;;;;;;3.70;3.05;;;;;;;17.74;51.97;94350.94;4970010;28;20038;-79
2022/09/07 00:18:49;;;;;;;6.70;4.57;;;;;;;17.73;51.58;94348.59;4971152;28;20023;-78
2022/09/07 00:21:16;;;;;;;4.57;3.40;;;;;;;17.52;51.53;94320.00;4968984;28;20044;-79
2022/09/07 00:23:43;;;;;;;4.15;3.33;;;;;;;17.69;51.64;94347.72;4971501;28;20030;-77
2022/09/07 00:26:11;;;;;;;3.90;3.47;;;;;;;17.50;51.71;94316.09;4969303;28;20058;-78
2022/09/07 00:28:37;;;;;;;5.20;3.95;;;;;;;17.43;51.74;94315.91;4969077;28;20030;-81
2022/09/07 00:31:07;;;;;;;5.35;4.05;;;;;;;17.30;51.78;94292.91;4970279;28;20050;-80
2022/09/07 00:33:33;;;;;;;7.30;3.38;;;;;;;17.45;51.56;94317.13;4968571;28;20419;-79
2022/09/07 00:35:58;;;;;;;4.07;2.95;;;;;;;17.48;51.58;94321.03;4970499;28;20033;-78
2022/09/07 00:38:24;;;;;;;3.72;3.20;;;;;;;17.52;51.53;94332.66;4969407;28;20356;-77
2022/09/07 00:40:49;;;;;;;5.43;3.35;;;;;;;17.33;51.54;94319.88;4971380;28;20026;-78
2022/09/07 00:43:28;;;;;;;4.30;3.20;;;;;;;17.44;51.52;94333.59;4969754;28;20458;-79
2022/09/07 00:45:54;;;;;;;5.90;3.63;;;;;;;17.27;51.74;94312.38;4954206;28;20022;-78
2022/09/07 00:48:22;;;;;;;3.80;3.22;;;;;;;17.33;51.66;94327.94;4968009;28;20034;-79
2022/09/07 00:50:53;;;;;;;5.45;3.25;;;;;;;16.97;51.85;94274.28;4969214;28;20472;-78
2022/09/07 00:53:21;;;;;;;4.07;3.30;;;;;;;17.48;52.17;94358.69;4969216;28;20395;-80
2022/09/07 00:55:50;;;;;;;6.15;3.67;;;;;;;17.44;52.07;94350.53;4969811;28;20022;-78
2022/09/07 00:58:18;;;;;;;4.03;3.63;;;;;;;17.43;52.32;94350.88;4974225;28;20343;-78
2022/09/07 01:00:45;;;;;;;5.95;3.28;;;;;;;17.30;52.16;94330.53;4972335;28;20497;-80
2022/09/07 01:03:12;;;;;;;5.07;3.70;;;;;;;17.37;52.00;94349.53;4973979;28;20141;-79
2022/09/07 01:06:15;;;;;;;6.60;3.95;;;;;;;17.35;51.88;94347.22;4971696;28;20577;-79
2022/09/07 01:08:44;;;;;;;4.40;3.85;;;;;;;17.31;52.18;94343.63;4956761;28;20026;-78
2022/09/07 01:11:10;;;;;;;10.30;3.30;;;;;;;17.26;52.21;94340.41;4972091;28;20366;-78
2022/09/07 01:13:42;;;;;;;4.78;3.83;;;;;;;17.12;52.04;94303.91;4971856;28;20514;-77
2022/09/07 01:16:40;;;;;;;8.32;3.92;;;;;;;17.24;51.91;94326.53;4972681;28;20121;-77
2022/09/07 01:19:30;;;;;;;9.90;4.38;;;;;;;17.21;52.21;94332.59;4972897;28;20034;-77
2022/09/07 01:22:11;;;;;;;10.75;4.63;;;;;;;17.20;52.22;94341.78;4973262;28;20029;-78
2022/09/07 01:24:39;;;;;;;6.80;4.07;;;;;;;17.17;52.12;94333.25;4955559;28;20587;-78
2022/09/07 01:27:40;;;;;;;10.05;5.25;;;;;;;17.01;52.10;94300.13;4973481;28;20026;-79
2022/09/07 01:30:18;;;;;;;9.02;4.40;;;;;;;16.78;52.25;94274.91;4925496;28;20691;-78
2022/09/07 01:33:03;;;;;;;10.00;4.45;;;;;;;17.13;52.19;94332.38;4971963;28;20113;-78
2022/09/07 01:36:05;;;;;;;8.00;3.55;;;;;;;17.08;52.31;94331.81;4956002;28;20506;-80
2022/09/07 01:38:46;;;;;;;9.07;4.40;;;;;;;17.03;52.32;94327.47;4969533;28;20042;-79
2022/09/07 01:41:19;;;;;;;7.10;4.00;;;;;;;16.79;52.37;94295.28;4954721;28;20030;-78
2022/09/07 01:43:50;;;;;;;8.80;4.05;;;;;;;17.07;52.26;94339.09;4973654;28;20105;-78
2022/09/07 01:46:32;;;;;;;7.20;4.25;;;;;;;16.92;52.31;94310.25;4953779;28;20568;-78
2022/09/07 01:49:29;;;;;;;6.13;4.05;;;;;;;17.05;52.14;94333.28;4971357;28;20081;-80
2022/09/07 01:52:01;;;;;;;5.13;3.30;;;;;;;17.01;52.27;94335.06;4950451;28;20030;-80
2022/09/07 01:54:31;;;;;;;6.60;4.05;;;;;;;16.98;52.49;94329.59;4971202;28;20030;-78
2022/09/07 01:57:03;;;;;;;8.32;4.00;;;;;;;16.77;52.46;94292.16;4973318;28;20402;-78
2022/09/07 01:59:56;;;;;;;5.65;3.28;;;;;;;16.76;52.12;94296.00;4973751;28;20494;-78
2022/09/07 02:02:42;;;;;;;6.35;3.67;;;;;;;16.90;52.37;94336.69;4972344;28;20021;-78
2022/09/07 02:05:14;;;;;;;4.55;3.67;;;;;;;16.87;52.39;94331.97;4972628;28;20558;-78
2022/09/07 02:07:49;;;;;;;5.60;3.58;;;;;;;16.86;52.37;94335.81;4971528;28;20145;-78
2022/09/07 02:10:32;;;;;;;3.40;3.10;;;;;;;16.84;52.49;94329.19;4971628;28;20029;-78
2022/09/07 02:13:22;;;;;;;3.92;3.42;;;;;;;16.50;52.68;94282.16;4956750;28;20142;-79
2022/09/07 02:16:06;;;;;;;5.70;3.30;;;;;;;16.80;52.66;94337.16;4972936;28;20042;-78
2022/09/07 02:18:56;;;;;;;5.03;3.65;;;;;;;16.67;52.91;94319.50;4971443;28;20035;-78
2022/09/07 02:21:29;;;;;;;4.72;3.58;;;;;;;16.70;52.92;94319.59;4962264;28;20050;-79
2022/09/07 02:24:03;;;;;;;4.32;3.45;;;;;;;16.58;53.01;94305.41;4971252;28;20026;-77
2022/09/07 02:26:29;;;;;;;6.22;3.72;;;;;;;16.29;52.96;94256.22;4970659;28;20026;-77
2022/09/07 02:28:55;;;;;;;4.43;3.10;;;;;;;16.75;52.89;94321.28;4972452;28;20136;-78
2022/09/07 02:31:22;;;;;;;4.53;3.50;;;;;;;16.75;52.92;94326.66;4970538;28;20021;-80
2022/09/07 02:33:48;;;;;;;4.40;3.65;;;;;;;16.46;53.07;94290.13;4971310;28;20046;-78
2022/09/07 02:36:17;;;;;;;3.92;3.47;;;;;;;16.73;52.97;94312.75;4971759;28;20356;-77
2022/09/07 02:38:42;;;;;;;4.95;4.15;;;;;;;16.63;52.94;94308.66;4971393;28;20022;-78
2022/09/07 02:41:34;;;;;;;4.53;3.78;;;;;;;16.66;53.19;94313.34;4972276;28;20049;-77
2022/09/07 02:44:03;;;;;;;3.40;3.10;;;;;;;16.36;53.36;94266.41;4970934;28;20022;-78
2022/09/07 02:46:42;;;;;;;5.18;3.72;;;;;;;16.59;53.44;94307.75;4955861;28;20027;-79
2022/09/07 02:49:26;;;;;;;3.83;3.10;;;;;;;16.67;53.27;94324.88;4971825;28;20382;-79
2022/09/07 02:52:09;;;;;;;4.78;3.60;;;;;;;16.67;53.30;94322.19;4971774;28;20377;-80
2022/09/07 02:55:02;;;;;;;3.58;3.25;;;;;;;16.15;52.97;94241.59;4954345;28;20093;-78
2022/09/07 02:57:44;;;;;;;4.22;3.72;;;;;;;16.43;53.32;94288.09;4967726;28;20542;-78
2022/09/07 03:00:16;;;;;;;4.00;3.50;;;;;;;16.39;52.98;94286.41;4971762;28;20034;-78
2022/09/07 03:02:49;;;;;;;3.55;3.25;;;;;;;16.49;53.08;94308.22;4968805;28;20030;-79
2022/09/07 03:05:30;;;;;;;4.97;3.83;;;;;;;16.60;53.25;94324.66;4971225;28;20053;-77
2022/09/07 03:08:09;;;;;;;5.35;3.35;;;;;;;16.56;52.81;94334.50;4970932;28;20029;-79
2022/09/07 03:10:38;;;;;;;4.18;3.70;;;;;;;16.58;53.13;94329.56;4971424;28;20045;-77
2022/09/07 03:13:03;;;;;;;7.57;3.67;;;;;;;16.40;52.79;94304.09;4969115;28;20076;-78
2022/09/07 03:15:29;;;;;;;4.05;3.63;;;;;;;16.50;53.23;94322.44;4972661;28;20034;-78
2022/09/07 03:17:54;;;;;;;6.35;3.78;;;;;;;16.31;53.26;94302.31;4969571;28;20030;-79
2022/09/07 03:20:21;;;;;;;4.15;3.47;;;;;;;16.46;53.22;94334.97;4970389;28;20425;-78
2022/09/07 03:22:48;;;;;;;5.18;3.42;;;;;;;16.24;53.23;94296.69;4972567;28;20030;-81
2022/09/07 03:25:14;;;;;;;4.07;3.35;;;;;;;16.20;53.29;94290.44;4971400;28;20022;-78
2022/09/07 03:27:40;;;;;;;4.00;3.55;;;;;;;16.35;53.08;94307.00;4970243;28;20097;-79
2022/09/07 03:30:08;;;;;;;5.03;3.13;;;;;;;16.20;53.33;94285.06;4968296;28;20442;-78
2022/09/07 03:32:35;;;;;;;5.93;3.63;;;;;;;16.41;53.15;94313.72;4969959;28;20054;-79
2022/09/07 03:35:02;;;;;;;4.15;3.70;;;;;;;16.45;53.04;94328.81;4968968;28;20034;-77
2022/09/07 03:37:28;;;;;;;3.22;2.67;;;;;;;16.25;52.75;94314.38;4972727;28;20034;-79
2022/09/07 03:39:54;;;;;;;3.80;3.40;;;;;;;16.26;53.14;94329.34;4970262;28;20712;-78
2022/09/07 03:42:20;;;;;;;5.38;2.80;;;;;;;16.09;53.21;94312.69;4956372;28;20022;-80
2022/09/07 03:44:47;;;;;;;4.85;3.50;;;;;;;16.10;53.48;94316.94;4972166;28;20029;-78
2022/09/07 03:47:13;;;;;;;4.47;3.40;;;;;;;15.96;53.46;94300.38;4969259;28;20085;-80
2022/09/07 03:49:38;;;;;;;6.60;3.85;;;;;;;16.29;53.49;94344.78;4970363;28;20157;-78
2022/09/07 03:52:04;;;;;;;4.25;3.58;;;;;;;16.06;53.51;94314.16;4954347;28;20597;-78
2022/09/07 03:54:29;;;;;;;4.32;2.95;;;;;;;16.15;53.68;94325.53;4970362;28;20027;-78
2022/09/07 03:56:56;;;;;;;4.65;3.90;;;;;;;16.27;53.71;94348.94;4969530;28;20050;-77
2022/09/07 03:59:21;;;;;;;4.78;4.15;;;;;;;16.10;53.66;94324.97;4970747;28;20023;-79
2022/09/07 04:01:47;;;;;;;4.20;3.60;;;;;;;16.01;53.72;94314.38;4970310;28;20585;-77
2022/09/07 04:04:12;;;;;;;4.32;3.63;;;;;;;16.21;53.80;94345.69;4969609;28;20036;-79
2022/09/07 04:06:38;;;;;;;5.40;3.88;;;;;;;16.08;53.61;94329.91;4970890;28;20022;-79
2022/09/07 04:09:06;;;;;;;4.63;3.65;;;;;;;16.12;53.65;94347.69;4970586;28;20023;-79
2022/09/07 04:11:32;;;;;;;4.78;3.45;;;;;;;16.18;53.60;94357.06;4970828;28;20515;-78
2022/09/07 04:13:58;;;;;;;3.63;3.33;;;;;;;16.03;53.88;94335.50;4970813;28;21116;-79
2022/09/07 04:16:25;;;;;;;5.72;3.88;;;;;;;16.18;53.70;94357.06;4968604;28;20122;-77
2022/09/07 04:18:53;;;;;;;4.88;4.18;;;;;;;16.20;53.88;94354.84;4970724;28;20105;-78
2022/09/07 04:21:20;;;;;;;4.38;3.92;;;;;;;16.19;53.98;94363.22;4970318;28;20446;-78
2022/09/07 04:23:46;;;;;;;5.25;4.07;;;;;;;16.18;54.14;94361.69;4969725;28;20034;-79
2022/09/07 04:26:14;;;;;;;5.88;4.05;;;;;;;16.18;54.26;94350.94;4969641;28;20023;-80
2022/09/07 04:28:40;;;;;;;5.55;3.25;;;;;;;16.24;54.28;94361.09;4964462;28;20580;-78
2022/09/07 04:31:05;;;;;;;4.05;3.40;;;;;;;16.25;54.40;94362.69;4971877;28;20058;-78
2022/09/07 04:33:31;;;;;;;7.80;3.95;;;;;;;16.05;53.85;94309.91;4974488;28;20138;-78
2022/09/07 04:35:59;;;;;;;5.15;4.22;;;;;;;16.24;53.63;94334.28;4973084;28;20102;-79
2022/09/07 04:38:26;;;;;;;3.78;3.42;;;;;;;16.23;53.74;94327.31;4972608;28;20042;-79
2022/09/07 04:41:11;;;;;;;5.32;4.07;;;;;;;16.20;53.68;94308.44;4975003;28;20032;-79
2022/09/07 04:43:38;;;;;;;4.50;3.85;;;;;;;16.51;53.83;94351.63;4962901;28;20383;-79
2022/09/07 04:46:16;;;;;;;5.22;3.78;;;;;;;16.57;53.53;94352.19;4956557;28;20030;-79
2022/09/07 04:48:41;;;;;;;4.35;3.65;;;;;;;16.50;53.05;94333.16;4974143;28;20034;-81
2022/09/07 04:51:09;;;;;;;4.05;3.35;;;;;;;16.53;53.12;94345.91;4973466;28;20116;-78
2022/09/07 04:53:36;;;;;;;4.57;3.88;;;;;;;16.10;53.11;94274.78;4973325;28;20077;-80
2022/09/07 04:56:02;;;;;;;6.93;4.00;;;;;;;16.41;52.90;94309.13;4973551;28;20072;-79
2022/09/07 04:58:28;;;;;;;4.30;3.78;;;;;;;16.84;52.69;94367.59;4973544;28;20077;-79
2022/09/07 05:00:53;;;;;;;4.90;4.22;;;;;;;16.82;52.33;94347.56;4973045;28;20030;-77
2022/09/07 05:03:19;;;;;;;5.60;4.00;;;;;;;16.94;52.29;94359.06;4973257;28;20475;-79
2022/09/07 05:05:44;;;;;;;6.63;4.57;;;;;;;16.89;52.21;94337.03;4963573;28;20133;-78
2022/09/07 05:08:11;;;;;;;7.88;3.40;;;;;;;17.14;51.31;94370.81;4973999;28;20031;-78
2022/09/07 05:10:36;;;;;;;8.95;4.80;;;;;;;17.15;51.17;94367.78;4972685;28;20380;-79
2022/09/07 05:13:02;;;;;;;7.63;4.45;;;;;;;17.02;51.41;94347.38;4971512;28;20441;-78
2022/09/07 05:15:30;;;;;;;7.53;4.78;;;;;;;17.09;51.13;94357.56;4974279;28;20129;-78
2022/09/07 05:17:58;;;;;;;7.13;4.50;;;;;;;17.22;50.72;94366.38;4970173;28;20026;-78
2022/09/07 05:20:24;;;;;;;4.57;4.07;;;;;;;17.04;50.33;94330.94;4973681;28;20577;-80
2022/09/07 05:22:58;;;;;;;5.65;4.65;;;;;;;17.37;50.92;94379.13;4972313;28;20037;-79
2022/09/07 05:25:25;;;;;;;12.93;4.88;;;;;;;17.43;50.63;94377.75;4973177;28;20072;-78
2022/09/07 05:27:51;;;;;;;5.07;4.38;;;;;;;17.32;50.60;94355.16;4972222;28;20479;-80
2022/09/07 05:30:17;;;;;;;5.90;4.63;;;;;;;17.51;50.47;94371.44;4971217;28;20057;-78
2022/09/07 05:32:44;;;;;;;7.13;4.40;;;;;;;17.18;50.22;94309.84;4972784;28;20145;-77
2022/09/07 05:35:10;;;;;;;5.00;4.22;;;;;;;17.21;50.49;94327.22;4970937;28;20140;-78
2022/09/07 05:37:35;;;;;;;9.43;4.80;;;;;;;17.46;50.24;94374.38;4972710;28;20502;-77
2022/09/07 05:40:01;;;;;;;5.28;4.30;;;;;;;17.35;50.23;94343.75;4971474;28;20033;-80
2022/09/07 05:42:26;;;;;;;9.93;6.22;;;;;;;17.35;50.35;94346.44;4972420;28;20553;-78
2022/09/07 05:44:51;;;;;;;8.57;5.05;;;;;;;17.59;50.91;94373.22;4972030;28;20137;-79
2022/09/07 05:47:17;;;;;;;6.80;4.50;;;;;;;17.64;50.76;94366.81;4972724;28;20036;-78
2022/09/07 05:49:43;;;;;;;11.32;5.50;;;;;;;17.22;49.82;94296.50;4973405;28;20652;-78
2022/09/07 05:52:08;;;;;;;6.65;5.80;;;;;;;17.40;50.36;94332.75;4971097;28;20701;-78
2022/09/07 05:54:34;;;;;;;8.65;4.68;;;;;;;17.47;50.12;94330.22;4955271;28;20046;-79
2022/09/07 05:56:59;;;;;;;5.80;5.15;;;;;;;17.76;50.43;94369.41;4971671;28;20022;-79
2022/09/07 05:59:24;;;;;;;7.30;5.43;;;;;;;17.81;50.06;94361.88;4970445;28;20037;-78
2022/09/07 06:01:50;;;;;;;8.85;4.75;;;;;;;17.81;49.55;94361.88;4973482;28;20634;-79
2022/09/07 06:04:15;;;;;;;6.28;4.93;;;;;;;17.58;49.64;94337.47;4972922;28;20026;-79
2022/09/07 06:06:41;;;;;;;8.90;5.68;;;;;;;17.67;50.26;94348.06;4971966;28;20029;-78
2022/09/07 06:09:06;;;;;;;5.07;4.57;;;;;;;17.64;50.46;94331.84;4970527;28;20046;-80
2022/09/07 06:11:32;;;;;;;7.65;5.25;;;;;;;17.91;50.18;94374.81;4971468;28;20026;-79
2022/09/07 06:13:57;;;;;;;7.53;5.13;;;;;;;17.83;49.96;94356.16;4972118;28;20030;-78
2022/09/07 06:16:22;;;;;;;5.97;5.05;;;;;;;17.69;50.25;94340.44;4971410;28;20061;-78
2022/09/07 06:18:49;;;;;;;8.10;5.70;;;;;;;17.86;50.50;94356.25;4972950;28;20345;-77
2022/09/07 06:21:19;;;;;;;4.88;4.22;;;;;;;17.98;49.84;94385.81;4972111;28;20030;-78
2022/09/07 06:23:45;;;;;;;5.68;4.65;;;;;;;17.96;49.29;94371.91;4972643;28;20049;-78
2022/09/07 06:26:12;;;;;;;4.35;3.92;;;;;;;18.09;49.26;94371.84;4973073;28;20025;-78
2022/09/07 06:28:43;;;;;;;5.88;3.80;;;;;;;17.89;48.30;94347.47;4955840;28;20344;-79
2022/09/07 06:31:12;;;;;;;4.15;3.45;;;;;;;18.02;48.57;94351.69;4973000;28;20030;-79
2022/09/07 06:33:39;;;;;;;7.55;3.70;;;;;;;17.85;47.77;94318.91;4971434;28;20050;-79
2022/09/07 06:36:09;;;;;;;5.85;2.80;;;;;;;18.21;47.96;94359.06;4961287;28;20457;-78
2022/09/07 06:38:36;;;;;;;3.33;3.03;;;;;;;18.33;47.71;94355.53;4969657;28;20558;-79
2022/09/07 06:41:03;;;;;;;3.28;2.17;;;;;;;18.64;47.25;94382.41;4969883;28;20501;-78
2022/09/07 06:43:28;;;;;;;4.55;2.95;;;;;;;18.55;46.86;94352.19;4971256;28;20030;-79
2022/09/07 06:45:54;;;;;;;4.47;2.08;;;;;;;18.60;46.30;94367.28;4970748;28;20022;-78
2022/09/07 06:48:20;;;;;;;3.38;1.90;;;;;;;18.70;45.92;94381.03;4971645;28;20026;-77
2022/09/07 06:51:19;;;;;;;3.80;1.95;;;;;;;18.50;45.22;94330.91;4970195;28;20068;-78
2022/09/07 06:53:45;;;;;;;5.85;1.60;;;;;;;18.95;44.54;94381.59;4927084;28;20030;-78
2022/09/07 06:56:17;;;;;;;3.75;1.80;;;;;;;18.80;44.72;94350.84;4971517;28;20188;-77
2022/09/07 06:58:42;;;;;;;3.65;2.22;;;;;;;19.14;44.44;94388.94;4970856;28;20018;-78
2022/09/07 07:01:13;;;;;;;6.15;2.13;;;;;;;18.81;43.55;94328.19;4970455;28;20030;-78
2022/09/07 07:03:39;;;;;;;2.08;1.88;;;;;;;19.21;43.82;94394.47;4970294;28;20034;-80
2022/09/07 07:06:05;;;;;;;4.55;1.92;;;;;;;19.21;44.40;94395.25;4970414;28;20052;-79
2022/09/07 07:08:31;;;;;;;3.83;2.40;;;;;;;19.28;44.16;94390.00;4972626;28;20034;-79
2022/09/07 07:11:01;;;;;;;5.45;2.22;;;;;;;19.34;43.01;94387.81;4970260;28;20057;-81
2022/09/07 07:13:26;;;;;;;2.65;1.67;;;;;;;19.27;43.75;94363.38;4969832;28;20338;-79
2022/09/07 07:15:52;;;;;;;1.83;1.60;;;;;;;19.40;43.43;94391.00;4957246;28;20509;-81
2022/09/07 07:18:18;;;;;;;3.05;1.80;;;;;;;19.31;43.51;94375.06;4970119;28;20041;-80
2022/09/07 07:20:43;;;;;;;4.13;2.22;;;;;;;19.52;43.88;94399.75;4970339;28;20023;-80
2022/09/07 07:23:10;;;;;;;2.83;2.13;;;;;;;19.59;43.03;94399.91;4970946;28;20032;-79
2022/09/07 07:25:36;;;;;;;2.17;1.80;;;;;;;19.33;43.19;94351.97;4971590;28;20431;-81
2022/09/07 07:28:03;;;;;;;2.20;1.67;;;;;;;19.60;43.78;94389.91;4971934;28;20025;-81
2022/09/07 07:30:29;;;;;;;3.38;2.20;;;;;;;19.61;43.51;94383.34;4969610;28;20038;-80
2022/09/07 07:32:57;;;;;;;3.72;2.38;;;;;;;19.47;43.10;94359.59;4970254;28;20754;-79
2022/09/07 07:35:23;;;;;;;4.28;2.53;;;;;;;19.59;43.90;94367.53;4969106;28;20025;-79
2022/09/07 07:37:51;;;;;;;3.15;1.92;;;;;;;19.65;42.80;94368.78;4970339;28;20031;-80
2022/09/07 07:40:17;;;;;;;3.05;2.15;;;;;;;19.90;43.20;94395.47;4971420;28;20027;-79
2022/09/07 07:42:43;;;;;;;5.80;2.00;;;;;;;19.89;42.88;94396.63;4971754;28;20513;-79
2022/09/07 07:45:10;;;;;;;2.55;1.88;;;;;;;19.83;42.75;94395.34;4969101;28;20035;-80
2022/09/07 07:47:35;;;;;;;3.38;2.25;;;;;;;19.48;43.26;94377.34;4970593;28;20483;-81
2022/09/07 07:50:06;;;;;;;2.63;1.80;;;;;;;19.68;43.37;94394.31;4959177;28;20139;-80
2022/09/07 07:52:36;;;;;;;2.72;1.80;;;;;;;19.79;42.58;94397.22;4969658;28;20030;-80
2022/09/07 07:55:06;;;;;;;2.50;2.30;;;;;;;19.73;42.58;94377.81;4955962;28;20402;-80
2022/09/07 07:57:31;;;;;;;3.25;2.30;;;;;;;19.82;41.94;94404.59;4969571;28;20027;-79
2022/09/07 07:59:57;;;;;;;2.85;2.03;;;;;;;19.80;43.02;94409.56;4969745;28;20370;-79
2022/09/07 08:02:22;;;;;;;3.97;2.20;;;;;;;19.85;42.30;94407.34;4954196;28;20493;-79
2022/09/07 08:04:48;;;;;;;2.92;2.22;;;;;;;19.86;43.26;94400.03;4972976;28;20994;-81
2022/09/07 08:07:14;;;;;;;7.18;2.40;;;;;;;19.75;43.15;94380.94;4975699;28;20010;-79
2022/09/07 08:09:45;;;;;;;2.55;2.05;;;;;;;19.67;43.50;94382.72;4973437;28;20507;-80
2022/09/07 08:12:15;;;;;;;2.83;2.28;;;;;;;19.52;42.82;94345.81;4974110;28;20038;-79
2022/09/07 08:14:41;;;;;;;3.83;2.10;;;;;;;19.86;43.13;94397.31;4973703;28;20035;-79
2022/09/07 08:17:10;;;;;;;5.75;2.20;;;;;;;19.94;42.66;94401.75;4963456;28;20026;-79
2022/09/07 08:19:36;;;;;;;2.75;2.17;;;;;;;19.61;43.40;94353.69;4973116;28;20678;-79
2022/09/07 08:22:02;;;;;;;6.03;1.70;;;;;;;19.72;42.91;94358.16;4973462;28;20034;-79
2022/09/07 08:24:29;;;;;;;7.05;2.30;;;;;;;19.74;43.31;94355.09;4973768;28;20065;-80
2022/09/07 08:26:54;;;;;;;3.28;2.83;;;;;;;19.98;42.76;94389.84;4956685;28;20023;-79
2022/09/07 08:29:19;;;;;;;2.75;1.88;;;;;;;20.07;42.19;94390.41;4972931;28;20041;-80
2022/09/07 08:31:45;;;;;;;3.33;2.40;;;;;;;20.14;42.28;94403.25;4974055;28;20045;-80
2022/09/07 08:34:10;;;;;;;3.38;2.42;;;;;;;19.95;43.01;94373.56;4972457;28;20131;-79
2022/09/07 08:36:36;;;;;;;3.60;2.33;;;;;;;19.54;42.89;94346.25;4972297;28;20491;-79
2022/09/07 08:39:03;;;;;;;4.55;2.63;;;;;;;19.77;42.98;94378.66;4974119;28;20022;-80
2022/09/07 08:41:33;;;;;;;5.50;2.45;;;;;;;19.91;42.68;94383.53;4975394;28;20092;-80
2022/09/07 08:44:09;;;;;;;4.63;2.85;;;;;;;19.97;43.55;94390.22;4954722;28;20037;-80
2022/09/07 08:46:57;;;;;;;3.88;2.65;;;;;;;20.00;43.15;94389.47;4973623;28;20030;-79
2022/09/07 08:49:32;;;;;;;2.35;2.15;;;;;;;20.06;43.12;94377.25;4970389;28;20431;-79
2022/09/07 08:52:17;;;;;;;;;;;;;;;20.09;42.48;94385.41;4954548;28;20029;-80
2022/09/07 08:54:52;;;;;;;6.40;2.22;;;;;;;20.01;42.62;94377.56;4973626;28;20008;-79
2022/09/07 08:57:28;;;;;;;4.05;2.60;;;;;;;19.75;42.87;94378.22;4962115;28;20609;-79
2022/09/07 09:00:03;;;;;;;3.95;3.08;;;;;;;19.61;43.49;94380.66;4957820;28;20655;-78
2022/09/07 09:02:29;;;;;;;5.00;2.63;;;;;;;19.67;44.26;94361.13;4973715;28;20030;-79
2022/09/07 09:04:54;;;;;;;4.03;2.33;;;;;;;19.63;43.51;94341.41;4974908;28;20483;-80
2022/09/07 09:07:28;;;;;;;5.85;2.80;;;;;;;19.71;43.70;94337.69;4972868;28;20018;-79
2022/09/07 09:10:02;;;;;;;3.55;2.88;;;;;;;19.94;43.55;94369.34;4973496;28;20113;-80
2022/09/07 09:13:05;;;;;;;3.35;2.75;;;;;;;20.03;43.50;94370.66;4954599;28;20049;-77
2022/09/07 09:15:40;;;;;;;3.53;2.80;;;;;;;20.09;42.71;94357.66;4974040;28;20077;-79
2022/09/07 09:18:25;;;;;;;;;;;;;;;20.16;42.67;94350.47;4972233;28;20061;-80
2022/09/07 09:20:54;;;;;;;5.45;2.67;;;;;;;20.13;43.36;94347.69;4971087;28;19918;-79
2022/09/07 09:23:25;;;;;;;4.10;2.70;;;;;;;19.84;42.37;94321.34;4971544;28;20628;-79
2022/09/07 09:26:00;;;;;;;2.78;2.58;;;;;;;20.17;43.24;94345.84;4972420;28;20085;-78
2022/09/07 09:28:25;;;;;;;2.72;2.28;;;;;;;20.14;43.42;94327.66;4971943;28;20139;-78
2022/09/07 09:30:51;;;;;;;2.95;2.30;;;;;;;20.21;43.76;94311.56;4972763;28;20499;-79
2022/09/07 09:33:18;;;;;;;3.60;2.75;;;;;;;20.57;43.30;94345.34;4973074;28;20054;-78
2022/09/07 09:35:48;;;;;;;8.73;3.17;;;;;;;20.46;42.16;94298.44;4971019;28;20172;-79
2022/09/07 09:38:30;;;;;;;2.72;2.50;;;;;;;20.77;42.05;94338.69;4970950;28;20037;-79
2022/09/07 09:40:59;;;;;;;5.55;2.80;;;;;;;20.67;41.75;94320.41;4956106;28;20118;-78
2022/09/07 09:43:46;;;;;;;2.90;2.28;;;;;;;20.87;41.68;94326.50;4971310;28;20034;-80
2022/09/07 09:46:19;;;;;;;4.40;2.75;;;;;;;20.82;41.86;94318.66;4970771;28;20041;-79
2022/09/07 09:49:02;;;;;;;3.33;2.70;;;;;;;20.84;43.14;94313.66;4972075;28;20455;-79
2022/09/07 09:51:32;;;;;;;2.90;2.47;;;;;;;21.01;41.90;94332.09;4972241;28;20766;-78
2022/09/07 09:54:01;;;;;;;3.58;2.33;;;;;;;21.09;41.44;94320.22;4959898;28;20026;-78
2022/09/07 09:56:38;;;;;;;2.28;1.95;;;;;;;20.76;41.51;94260.66;4972085;28;20027;-78
2022/09/07 09:59:18;;;;;;;4.80;2.13;;;;;;;21.16;40.82;94324.94;4972120;28;20018;-78
2022/09/07 10:01:45;;;;;;;3.40;2.63;;;;;;;21.05;41.20;94289.63;4955261;28;20026;-79
2022/09/07 10:04:22;;;;;;;5.10;2.72;;;;;;;21.30;40.67;94314.28;4970587;28;20126;-78
2022/09/07 10:07:19;;;;;;;4.18;2.63;;;;;;;21.30;39.92;94317.00;4954333;28;20037;-78
2022/09/07 10:09:53;;;;;;;5.72;2.65;;;;;;;21.26;39.81;94305.34;4971957;28;20033;-79
2022/09/07 10:12:27;;;;;;;5.40;2.65;;;;;;;20.94;42.61;94294.13;4961103;28;21642;-80
2022/09/07 10:14:55;;;;;;;3.35;2.53;;;;;;;20.83;41.61;94287.75;4956960;28;20049;-78
2022/09/07 10:17:31;;;;;;;4.13;2.65;;;;;;;21.05;41.89;94303.16;4971288;28;20454;-78
2022/09/07 10:20:34;;;;;;;3.67;2.30;;;;;;;21.22;41.22;94299.88;4971783;28;20124;-77
2022/09/07 10:22:59;;;;;;;2.88;2.50;;;;;;;21.13;40.67;94277.75;4972065;28;20046;-80
2022/09/07 10:25:39;;;;;;;2.15;1.92;;;;;;;21.27;40.66;94275.22;4962550;28;20031;-78
2022/09/07 10:28:11;;;;;;;2.47;2.28;;;;;;;21.42;40.35;94293.16;4970727;28;20523;-78
2022/09/07 10:31:00;;;;;;;2.95;2.53;;;;;;;21.49;39.44;94286.28;4971569;28;20038;-78
2022/09/07 10:33:34;;;;;;;2.35;2.15;;;;;;;21.52;40.11;94288.22;4963167;28;20054;-78
2022/09/07 10:36:14;;;;;;;4.18;2.67;;;;;;;21.56;39.20;94275.56;4971721;28;20055;-78
2022/09/07 10:38:49;;;;;;;3.63;2.53;;;;;;;21.54;39.43;94267.00;4973107;28;20061;-80
2022/09/07 10:41:17;;;;;;;2.42;2.22;;;;;;;21.64;41.19;94277.19;4956154;28;20026;-78
2022/09/07 10:43:46;;;;;;;2.10;1.90;;;;;;;21.47;39.81;94246.03;4969637;28;20483;-79
2022/09/07 10:46:20;;;;;;;2.75;2.40;;;;;;;21.75;39.88;94272.66;4970306;28;20498;-78
2022/09/07 10:48:45;;;;;;;3.90;3.00;;;;;;;21.83;39.41;94271.56;4970922;28;20038;-78
2022/09/07 10:51:39;;;;;;;2.75;2.47;;;;;;;21.73;40.57;94251.38;4973507;28;20562;-78
2022/09/07 10:54:21;;;;;;;4.18;2.75;;;;;;;21.83;39.42;94242.56;4944639;28;20455;-77
2022/09/07 10:56:52;;;;;;;3.25;2.47;;;;;;;21.95;39.13;94248.84;4971392;28;20026;-79
2022/09/07 10:59:39;;;;;;;2.95;2.20;;;;;;;22.12;39.70;94265.25;4967419;28;20117;-79
2022/09/07 11:02:30;;;;;;;2.40;2.20;;;;;;;22.19;39.09;94261.81;4968007;28;20351;-79
2022/09/07 11:05:28;;;;;;;4.43;2.40;;;;;;;22.25;38.62;94261.09;4970311;28;20023;-79
2022/09/07 11:08:16;;;;;;;3.15;2.65;;;;;;;22.27;39.11;94252.59;4969874;28;20023;-79
2022/09/07 11:10:42;;;;;;;5.70;2.42;;;;;;;22.33;39.36;94250.31;4970821;28;20412;-80
2022/09/07 11:13:12;;;;;;;2.45;2.20;;;;;;;22.39;39.23;94255.00;4969526;28;20107;-80
2022/09/07 11:15:48;;;;;;;2.38;2.10;;;;;;;22.45;38.86;94263.56;4971492;28;20034;-80
2022/09/07 11:18:25;;;;;;;3.53;2.80;;;;;;;22.48;38.55;94260.88;4972205;28;20034;-81
2022/09/07 11:20:55;;;;;;;3.03;2.72;;;;;;;22.45;38.87;94252.72;4971057;28;20046;-80
2022/09/07 11:23:43;;;;;;;3.17;2.53;;;;;;;22.44;38.69;94245.75;4971298;28;20030;-80
2022/09/07 11:26:45;;;;;;;4.60;2.35;;;;;;;22.49;38.97;94232.59;4970417;28;20542;-79
2022/09/07 11:29:24;;;;;;;3.47;2.20;;;;;;;22.14;39.53;94170.06;4969725;28;20026;-79
2022/09/07 11:31:54;;;;;;;2.92;2.30;;;;;;;22.49;39.02;94226.41;4971007;28;20431;-80
2022/09/07 11:34:29;;;;;;;3.00;2.22;;;;;;;22.42;39.76;94207.41;4970470;28;20046;-79
2022/09/07 11:37:23;;;;;;;3.40;2.70;;;;;;;22.67;38.91;94233.50;4968608;28;20015;-80
2022/09/07 11:39:55;;;;;;;3.22;2.63;;;;;;;22.58;40.85;94210.59;4952777;28;20430;-79
2022/09/07 11:42:35;;;;;;;2.72;2.53;;;;;;;22.74;39.34;94230.81;4967291;28;20471;-79
2022/09/07 11:45:18;;;;;;;2.95;2.42;;;;;;;22.74;40.03;94233.53;4971263;28;20069;-80
2022/09/07 11:48:02;;;;;;;2.60;2.40;;;;;;;22.53;40.13;94219.09;4968987;28;20394;-79
2022/09/07 11:50:33;;;;;;;3.33;2.78;;;;;;;22.56;42.16;94223.75;4970028;28;20484;-79
2022/09/07 11:53:07;;;;;;;3.03;2.63;;;;;;;22.41;43.16;94216.69;4969345;28;20121;-80
2022/09/07 11:55:37;;;;;;;3.35;3.05;;;;;;;22.44;40.93;94215.94;4961215;28;20389;-82